createdAt,value
2018-12-22T00:00:21.588Z,1.20
2018-12-22T00:01:23.035Z,1.20
2018-12-22T00:02:24.790Z,1.20
2018-12-22T00:03:26.181Z,1.20
2018-12-22T00:04:27.663Z,1.30
2018-12-22T00:05:29.072Z,1.20
2018-12-22T00:06:30.510Z,1.20
2018-12-22T00:07:31.942Z,1.20
2018-12-22T00:08:33.341Z,1.20
2018-12-22T00:09:34.733Z,1.20
2018-12-22T00:10:36.125Z,1.20
2018-12-22T00:11:37.658Z,1.20
2018-12-22T00:12:39.094Z,1.20
2018-12-22T00:13:40.477Z,1.20
2018-12-22T00:14:42.006Z,1.20
2018-12-22T00:15:43.553Z,1.20
2018-12-22T00:16:45.024Z,1.20
2018-12-22T00:17:46.503Z,1.20
2018-12-22T00:18:47.996Z,1.20
2018-12-22T00:19:49.658Z,1.10
2018-12-22T00:20:51.176Z,1.10
2018-12-22T00:21:52.664Z,1.10
2018-12-22T00:22:54.165Z,1.10
2018-12-22T00:23:55.658Z,1.00
2018-12-22T00:24:57.107Z,1.00
2018-12-22T00:25:58.637Z,0.90
2018-12-22T00:27:00.163Z,1.00
2018-12-22T00:28:01.621Z,1.00
2018-12-22T00:29:03.037Z,1.00
2018-12-22T00:30:04.446Z,1.00
2018-12-22T00:31:05.855Z,0.90
2018-12-22T00:32:07.269Z,0.90
2018-12-22T00:33:08.672Z,0.90
2018-12-22T00:34:10.052Z,0.90
2018-12-22T00:35:11.505Z,0.80
2018-12-22T00:36:12.931Z,0.80
2018-12-22T00:37:14.297Z,0.80
2018-12-22T00:38:15.656Z,0.80
2018-12-22T00:39:17.012Z,0.80
2018-12-22T00:40:18.456Z,0.70
2018-12-22T00:41:19.825Z,0.70
2018-12-22T00:42:21.209Z,0.80
2018-12-22T00:43:22.580Z,0.70
2018-12-22T00:44:23.968Z,0.80
2018-12-22T00:45:25.461Z,0.80
2018-12-22T00:46:26.966Z,0.80
2018-12-22T00:47:28.544Z,0.80
2018-12-22T00:48:30.096Z,0.80
2018-12-22T00:49:31.523Z,0.90
2018-12-22T00:50:33.022Z,0.90
2018-12-22T00:51:34.419Z,0.90
2018-12-22T00:52:35.813Z,0.90
2018-12-22T00:53:37.869Z,0.80
2018-12-22T00:54:39.269Z,0.80
2018-12-22T00:55:40.768Z,0.80
2018-12-22T00:56:42.256Z,0.90
2018-12-22T00:57:43.758Z,0.80
2018-12-22T00:58:45.241Z,0.80
2018-12-22T00:59:46.702Z,0.80
2018-12-22T01:00:48.277Z,0.70
2018-12-22T01:01:49.763Z,0.80
2018-12-22T01:02:51.138Z,0.80
2018-12-22T01:03:52.545Z,0.80
2018-12-22T01:04:53.924Z,0.80
2018-12-22T01:05:55.350Z,0.90
2018-12-22T01:06:56.723Z,0.90
2018-12-22T01:07:58.104Z,0.90
2018-12-22T01:08:59.492Z,0.90
2018-12-22T01:10:00.861Z,0.90
2018-12-22T01:11:02.311Z,0.80
2018-12-22T01:12:03.777Z,0.80
2018-12-22T01:13:05.257Z,0.80
2018-12-22T01:14:06.649Z,0.80
2018-12-22T01:15:08.040Z,0.90
2018-12-22T01:16:09.585Z,0.90
2018-12-22T01:17:11.064Z,0.80
2018-12-22T01:18:12.514Z,0.80
2018-12-22T01:19:13.890Z,0.80
2018-12-22T01:20:15.292Z,0.80
2018-12-22T01:21:16.775Z,0.70
2018-12-22T01:22:18.141Z,0.70
2018-12-22T01:23:19.525Z,0.70
2018-12-22T01:24:20.894Z,0.70
2018-12-22T01:25:22.405Z,0.70
2018-12-22T01:26:23.911Z,0.80
2018-12-22T01:27:25.394Z,0.70
2018-12-22T01:28:26.874Z,0.70
2018-12-22T01:29:28.350Z,0.80
2018-12-22T01:30:29.821Z,0.80
2018-12-22T01:31:31.246Z,0.80
2018-12-22T01:32:32.639Z,0.70
2018-12-22T01:33:34.029Z,0.70
2018-12-22T01:34:35.389Z,0.60
2018-12-22T01:35:36.764Z,0.70
2018-12-22T01:36:38.188Z,0.60
2018-12-22T01:37:39.585Z,0.60
2018-12-22T01:38:40.965Z,0.70
2018-12-22T01:39:42.360Z,0.70
2018-12-22T01:40:43.709Z,0.70
2018-12-22T01:41:45.226Z,0.80
2018-12-22T01:42:46.632Z,0.80
2018-12-22T01:43:48.004Z,0.80
2018-12-22T01:44:49.369Z,0.80
2018-12-22T01:45:50.853Z,0.80
2018-12-22T01:46:52.355Z,0.80
2018-12-22T01:47:53.809Z,0.80
2018-12-22T01:48:55.281Z,0.80
2018-12-22T01:49:56.655Z,0.80
2018-12-22T01:50:58.029Z,0.80
2018-12-22T01:51:59.472Z,0.80
2018-12-22T01:53:00.853Z,0.70
2018-12-22T01:54:02.323Z,0.60
2018-12-22T01:55:03.741Z,0.60
2018-12-22T01:56:05.216Z,0.70
2018-12-22T01:57:06.734Z,0.70
2018-12-22T01:58:08.217Z,0.80
2018-12-22T01:59:09.580Z,0.80
2018-12-22T02:00:10.972Z,0.80
2018-12-22T02:01:12.437Z,0.80
2018-12-22T02:02:13.942Z,0.80
2018-12-22T02:03:15.448Z,0.70
2018-12-22T02:04:16.993Z,0.70
2018-12-22T02:05:18.510Z,0.70
2018-12-22T02:06:19.978Z,0.70
2018-12-22T02:07:21.509Z,0.70
2018-12-22T02:08:22.992Z,0.70
2018-12-22T02:09:24.474Z,0.70
2018-12-22T02:10:25.947Z,0.80
2018-12-22T02:11:27.448Z,0.70
2018-12-22T02:12:28.881Z,0.70
2018-12-22T02:13:30.370Z,0.80
2018-12-22T02:14:31.755Z,0.70
2018-12-22T02:15:33.214Z,0.70
2018-12-22T02:16:34.714Z,0.80
2018-12-22T02:17:36.253Z,0.80
2018-12-22T02:18:37.750Z,0.70
2018-12-22T02:19:39.235Z,0.70
2018-12-22T02:20:40.706Z,0.70
2018-12-22T02:21:42.182Z,0.70
2018-12-22T02:22:43.706Z,0.80
2018-12-22T02:23:45.069Z,0.70
2018-12-22T02:24:46.452Z,0.70
2018-12-22T02:25:47.956Z,0.60
2018-12-22T02:26:49.444Z,0.60
2018-12-22T02:27:50.978Z,0.70
2018-12-22T02:28:56.612Z,0.60
2018-12-22T02:29:55.885Z,0.70
2018-12-22T02:30:57.280Z,0.70
2018-12-22T02:31:58.654Z,0.70
2018-12-22T02:33:00.081Z,0.70
2018-12-22T02:34:01.458Z,0.70
2018-12-22T02:35:02.830Z,0.70
2018-12-22T02:36:04.204Z,0.70
2018-12-22T02:37:05.574Z,0.80
2018-12-22T02:38:07.361Z,0.80
2018-12-22T02:39:08.735Z,0.80
2018-12-22T02:40:10.118Z,0.70
2018-12-22T02:41:11.509Z,0.70
2018-12-22T02:42:14.107Z,0.80
2018-12-22T02:43:15.689Z,0.80
2018-12-22T02:44:17.150Z,0.80
2018-12-22T02:45:18.531Z,0.80
2018-12-22T02:46:19.912Z,0.80
2018-12-22T02:47:21.305Z,0.80
2018-12-22T02:48:22.726Z,0.80
2018-12-22T02:49:24.097Z,0.80
2018-12-22T02:50:25.476Z,0.80
2018-12-22T02:51:26.956Z,0.80
2018-12-22T02:52:28.444Z,0.70
2018-12-22T02:53:30.011Z,0.60
2018-12-22T02:54:31.495Z,0.60
2018-12-22T02:55:32.893Z,0.60
2018-12-22T02:56:34.292Z,0.60
2018-12-22T02:57:35.673Z,0.60
2018-12-22T02:58:37.113Z,0.70
2018-12-22T02:59:38.527Z,0.60
2018-12-22T03:00:39.917Z,0.70
2018-12-22T03:01:41.341Z,0.60
2018-12-22T03:02:42.844Z,0.60
2018-12-22T03:03:44.373Z,0.70
2018-12-22T03:04:45.877Z,0.70
2018-12-22T03:05:47.366Z,0.70
2018-12-22T03:06:48.881Z,0.60
2018-12-22T03:07:50.393Z,0.60
2018-12-22T03:08:51.945Z,0.70
2018-12-22T03:09:53.422Z,0.70
2018-12-22T03:10:54.914Z,0.70
2018-12-22T03:11:56.397Z,0.70
2018-12-22T03:12:57.878Z,0.70
2018-12-22T03:13:59.396Z,0.70
2018-12-22T03:15:00.860Z,0.70
2018-12-22T03:16:02.310Z,0.70
2018-12-22T03:17:03.758Z,0.80
2018-12-22T03:18:05.732Z,0.80
2018-12-22T03:19:07.281Z,0.80
2018-12-22T03:20:08.769Z,0.80
2018-12-22T03:21:10.223Z,0.70
2018-12-22T03:22:11.700Z,0.70
2018-12-22T03:23:13.182Z,0.70
2018-12-22T03:24:14.713Z,0.70
2018-12-22T03:25:16.094Z,0.60
2018-12-22T03:26:17.463Z,0.60
2018-12-22T03:27:18.865Z,0.60
2018-12-22T03:28:20.249Z,0.60
2018-12-22T03:29:21.778Z,0.60
2018-12-22T03:30:23.239Z,0.60
2018-12-22T03:31:24.809Z,0.60
2018-12-22T03:32:26.340Z,0.50
2018-12-22T03:33:27.816Z,0.50
2018-12-22T03:34:29.236Z,0.50
2018-12-22T03:35:31.428Z,0.60
2018-12-22T03:36:32.894Z,0.60
2018-12-22T03:37:34.379Z,0.60
2018-12-22T03:38:35.845Z,0.70
2018-12-22T03:39:37.363Z,0.60
2018-12-22T03:40:38.841Z,0.60
2018-12-22T03:41:40.215Z,0.70
2018-12-22T03:42:41.724Z,0.60
2018-12-22T03:43:43.308Z,0.60
2018-12-22T03:44:44.842Z,0.60
2018-12-22T03:45:46.299Z,0.60
2018-12-22T03:46:47.789Z,0.70
2018-12-22T03:47:49.282Z,0.70
2018-12-22T03:48:50.720Z,0.70
2018-12-22T03:49:52.269Z,0.70
2018-12-22T03:50:53.621Z,0.60
2018-12-22T03:51:55.013Z,0.60
2018-12-22T03:52:56.399Z,0.60
2018-12-22T03:53:57.889Z,0.60
2018-12-22T03:54:59.394Z,0.60
2018-12-22T03:56:00.875Z,0.60
2018-12-22T03:57:02.357Z,0.60
2018-12-22T03:58:03.893Z,0.50
2018-12-22T03:59:05.639Z,0.60
2018-12-22T04:00:07.213Z,0.60
2018-12-22T04:01:08.723Z,0.60
2018-12-22T04:02:10.234Z,0.60
2018-12-22T04:03:11.997Z,0.60
2018-12-22T04:04:13.587Z,0.60
2018-12-22T04:05:15.034Z,0.60
2018-12-22T04:06:16.393Z,0.60
2018-12-22T04:07:17.790Z,0.60
2018-12-22T04:08:19.214Z,0.50
2018-12-22T04:09:20.586Z,0.50
2018-12-22T04:10:22.006Z,0.60
2018-12-22T04:11:23.494Z,0.60
2018-12-22T04:12:24.980Z,0.60
2018-12-22T04:13:26.438Z,0.60
2018-12-22T04:14:27.807Z,0.60
2018-12-22T04:15:29.465Z,0.70
2018-12-22T04:16:30.961Z,0.60
2018-12-22T04:17:32.424Z,0.60
2018-12-22T04:18:33.897Z,0.60
2018-12-22T04:19:35.377Z,0.50
2018-12-22T04:20:37.071Z,0.40
2018-12-22T04:21:38.570Z,0.40
2018-12-22T04:22:40.064Z,0.40
2018-12-22T04:23:41.564Z,0.40
2018-12-22T04:24:43.029Z,0.50
2018-12-22T04:25:44.670Z,0.40
2018-12-22T04:26:46.178Z,0.40
2018-12-22T04:27:47.761Z,0.40
2018-12-22T04:28:49.297Z,0.50
2018-12-22T04:29:50.766Z,0.60
2018-12-22T04:30:52.197Z,0.60
2018-12-22T04:31:53.585Z,0.60
2018-12-22T04:32:54.963Z,0.60
2018-12-22T04:33:56.341Z,0.50
2018-12-22T04:34:57.709Z,0.50
2018-12-22T04:35:59.133Z,0.40
2018-12-22T04:37:00.513Z,0.50
2018-12-22T04:38:01.919Z,0.50
2018-12-22T04:39:03.293Z,0.40
2018-12-22T04:40:04.677Z,0.40
2018-12-22T04:41:06.086Z,0.40
2018-12-22T04:42:07.457Z,0.40
2018-12-22T04:43:08.826Z,0.50
2018-12-22T04:44:10.206Z,0.40
2018-12-22T04:45:11.699Z,0.40
2018-12-22T04:46:13.312Z,0.40
2018-12-22T04:47:14.780Z,0.40
2018-12-22T04:48:16.261Z,0.40
2018-12-22T04:49:17.818Z,0.40
2018-12-22T04:50:19.310Z,0.40
2018-12-22T04:51:20.914Z,0.30
2018-12-22T04:52:22.369Z,0.30
2018-12-22T04:53:23.818Z,0.30
2018-12-22T04:54:25.310Z,0.30
2018-12-22T04:55:26.775Z,0.40
2018-12-22T04:56:28.454Z,0.30
2018-12-22T04:57:29.944Z,0.30
2018-12-22T04:58:31.428Z,0.30
2018-12-22T04:59:33.010Z,0.30
2018-12-22T05:00:34.499Z,0.30
2018-12-22T05:01:36.024Z,0.30
2018-12-22T05:02:37.516Z,0.40
2018-12-22T05:03:39.048Z,0.30
2018-12-22T05:04:40.451Z,0.30
2018-12-22T05:05:41.838Z,0.30
2018-12-22T05:06:43.374Z,0.30
2018-12-22T05:07:45.130Z,0.30
2018-12-22T05:08:46.638Z,0.40
2018-12-22T05:09:48.100Z,0.40
2018-12-22T05:10:49.587Z,0.40
2018-12-22T05:11:50.997Z,0.50
2018-12-22T05:12:52.381Z,0.50
2018-12-22T05:13:53.861Z,0.50
2018-12-22T05:14:55.354Z,0.50
2018-12-22T05:15:56.705Z,0.50
2018-12-22T05:16:58.150Z,0.50
2018-12-22T05:17:59.542Z,0.50
2018-12-22T05:19:01.032Z,0.40
2018-12-22T05:20:02.507Z,0.50
2018-12-22T05:21:03.882Z,0.40
2018-12-22T05:22:05.501Z,0.40
2018-12-22T05:23:06.889Z,0.40
2018-12-22T05:24:08.405Z,0.40
2018-12-22T05:25:09.960Z,0.40
2018-12-22T05:26:11.342Z,0.30
2018-12-22T05:27:12.920Z,0.30
2018-12-22T05:28:14.272Z,0.40
2018-12-22T05:29:15.757Z,0.40
2018-12-22T05:30:17.226Z,0.30
2018-12-22T05:31:18.694Z,0.30
2018-12-22T05:32:20.246Z,0.30
2018-12-22T05:33:21.737Z,0.40
2018-12-22T05:34:23.328Z,0.40
2018-12-22T05:35:24.709Z,0.30
2018-12-22T05:36:26.095Z,0.30
2018-12-22T05:37:27.529Z,0.30
2018-12-22T05:38:28.961Z,0.30
2018-12-22T05:39:30.322Z,0.30
2018-12-22T05:40:31.706Z,0.40
2018-12-22T05:41:33.165Z,0.40
2018-12-22T05:43:41.485Z,0.30
2018-12-22T05:44:42.976Z,0.30
2018-12-22T05:45:44.348Z,0.30
2018-12-22T05:46:45.863Z,0.30
2018-12-22T05:47:47.277Z,0.40
2018-12-22T05:48:48.660Z,0.40
2018-12-22T05:49:50.041Z,0.40
2018-12-22T05:50:51.444Z,0.40
2018-12-22T05:51:53.043Z,0.40
2018-12-22T05:52:54.476Z,0.40
2018-12-22T05:53:55.860Z,0.50
2018-12-22T05:54:57.269Z,0.50
2018-12-22T05:55:59.826Z,0.50
2018-12-22T05:57:01.358Z,0.50
2018-12-22T05:58:02.906Z,0.50
2018-12-22T05:59:04.392Z,0.40
2018-12-22T06:00:05.913Z,0.40
2018-12-22T06:01:07.404Z,0.40
2018-12-22T06:02:08.909Z,0.40
2018-12-22T06:03:10.430Z,0.30
2018-12-22T06:04:11.808Z,0.40
2018-12-22T06:05:13.197Z,0.40
2018-12-22T06:06:14.573Z,0.30
2018-12-22T06:07:15.953Z,0.30
2018-12-22T06:08:17.384Z,0.40
2018-12-22T06:09:18.966Z,0.40
2018-12-22T06:10:20.540Z,0.50
2018-12-22T06:11:22.029Z,0.50
2018-12-22T06:12:23.506Z,0.50
2018-12-22T06:13:25.086Z,0.50
2018-12-22T06:14:26.582Z,0.50
2018-12-22T06:15:27.997Z,0.50
2018-12-22T06:16:29.403Z,0.60
2018-12-22T06:17:30.780Z,0.60
2018-12-22T06:18:32.288Z,0.60
2018-12-22T06:19:33.669Z,0.70
2018-12-22T06:20:36.153Z,0.70
2018-12-22T06:21:37.682Z,0.70
2018-12-22T06:22:39.153Z,0.60
2018-12-22T06:23:40.753Z,0.60
2018-12-22T06:24:42.238Z,0.60
2018-12-22T06:25:43.730Z,0.60
2018-12-22T06:26:45.223Z,0.60
2018-12-22T06:27:46.721Z,0.60
2018-12-22T06:28:48.249Z,0.50
2018-12-22T06:29:49.876Z,0.60
2018-12-22T06:30:51.401Z,0.50
2018-12-22T06:31:52.797Z,0.60
2018-12-22T06:32:54.277Z,0.60
2018-12-22T06:33:55.776Z,0.60
2018-12-22T06:34:57.152Z,0.60
2018-12-22T06:35:58.685Z,0.70
2018-12-22T06:37:00.176Z,0.70
2018-12-22T06:38:01.564Z,0.60
2018-12-22T06:39:03.022Z,0.60
2018-12-22T06:40:04.505Z,0.60
2018-12-22T06:41:06.025Z,0.70
2018-12-22T06:42:07.621Z,0.70
2018-12-22T06:43:09.173Z,0.70
2018-12-22T06:44:10.646Z,0.70
2018-12-22T06:45:12.149Z,0.70
2018-12-22T06:46:13.552Z,0.80
2018-12-22T06:47:14.954Z,0.80
2018-12-22T06:48:16.420Z,0.70
2018-12-22T06:49:17.977Z,0.70
2018-12-22T06:50:19.381Z,0.70
2018-12-22T06:51:20.809Z,0.60
2018-12-22T06:52:22.184Z,0.50
2018-12-22T06:53:23.581Z,0.50
2018-12-22T06:54:25.096Z,0.50
2018-12-22T06:55:26.742Z,0.50
2018-12-22T06:56:28.156Z,0.60
2018-12-22T06:57:29.667Z,0.60
2018-12-22T06:58:31.154Z,0.70
2018-12-22T06:59:32.649Z,0.70
2018-12-22T07:00:34.077Z,0.70
2018-12-22T07:01:35.487Z,0.70
2018-12-22T07:02:36.908Z,0.70
2018-12-22T07:03:38.355Z,0.70
2018-12-22T07:04:39.773Z,0.70
2018-12-22T07:05:41.494Z,0.70
2018-12-22T07:06:43.049Z,0.70
2018-12-22T07:07:44.458Z,0.70
2018-12-22T07:08:45.875Z,0.70
2018-12-22T07:09:47.342Z,0.60
2018-12-22T07:10:48.770Z,0.70
2018-12-22T07:11:50.197Z,0.70
2018-12-22T07:12:51.576Z,0.70
2018-12-22T07:13:53.091Z,0.70
2018-12-22T07:14:54.672Z,0.80
2018-12-22T07:15:56.023Z,0.70
2018-12-22T07:16:57.510Z,0.70
2018-12-22T07:17:58.957Z,0.70
2018-12-22T07:19:00.348Z,0.80
2018-12-22T07:20:01.767Z,0.80
2018-12-22T07:21:03.197Z,0.80
2018-12-22T07:22:04.749Z,0.80
2018-12-22T07:23:06.140Z,0.90
2018-12-22T07:24:07.532Z,0.90
2018-12-22T07:25:08.952Z,0.80
2018-12-22T07:26:10.322Z,0.80
2018-12-22T07:27:11.728Z,0.80
2018-12-22T07:28:13.105Z,0.80
2018-12-22T07:29:14.495Z,0.80
2018-12-22T07:30:15.940Z,0.90
2018-12-22T07:31:17.422Z,0.90
2018-12-22T07:32:18.833Z,1.00
2018-12-22T07:33:20.270Z,0.90
2018-12-22T07:34:21.669Z,0.90
2018-12-22T07:35:23.128Z,0.90
2018-12-22T07:36:25.349Z,0.90
2018-12-22T07:37:26.863Z,0.90
2018-12-22T07:38:28.307Z,0.90
2018-12-22T07:39:29.714Z,0.90
2018-12-22T07:40:31.162Z,0.90
2018-12-22T07:41:32.557Z,0.80
2018-12-22T07:42:33.978Z,0.90
2018-12-22T07:43:35.405Z,0.90
2018-12-22T07:44:37.197Z,0.80
2018-12-22T07:45:38.686Z,0.80
2018-12-22T07:46:40.156Z,0.90
2018-12-22T07:47:41.566Z,0.90
2018-12-22T07:48:42.960Z,0.90
2018-12-22T07:49:44.384Z,1.00
2018-12-22T07:50:45.816Z,1.00
2018-12-22T07:51:47.249Z,1.00
2018-12-22T07:52:51.732Z,0.90
2018-12-22T07:53:52.163Z,0.90
2018-12-22T07:54:53.605Z,0.90
2018-12-22T07:55:55.157Z,0.90
2018-12-22T07:56:56.710Z,0.90
2018-12-22T07:57:59.478Z,0.90
2018-12-22T07:59:01.089Z,1.00
2018-12-22T08:00:02.522Z,1.00
2018-12-22T08:01:04.001Z,1.00
2018-12-22T08:02:05.435Z,1.10
2018-12-22T08:03:06.883Z,1.10
2018-12-22T08:04:09.544Z,1.10
2018-12-22T08:05:10.933Z,1.10
2018-12-22T08:06:12.436Z,1.10
2018-12-22T08:07:13.845Z,1.10
2018-12-22T08:08:15.231Z,1.00
2018-12-22T08:09:16.593Z,1.10
2018-12-22T08:10:18.001Z,1.00
2018-12-22T08:11:20.584Z,1.00
2018-12-22T08:12:22.002Z,0.90
2018-12-22T08:13:23.479Z,0.90
2018-12-22T08:14:24.917Z,0.90
2018-12-22T08:15:26.373Z,0.90
2018-12-22T08:16:27.889Z,0.90
2018-12-22T08:17:29.329Z,0.90
2018-12-22T08:18:30.774Z,1.00
2018-12-22T08:19:32.291Z,1.00
2018-12-22T08:20:33.724Z,1.00
2018-12-22T08:21:35.287Z,1.00
2018-12-22T08:22:36.683Z,1.10
2018-12-22T08:23:38.130Z,1.20
2018-12-22T08:24:40.283Z,1.10
2018-12-22T08:25:41.730Z,1.10
2018-12-22T08:26:43.882Z,1.10
2018-12-22T08:27:45.224Z,1.10
2018-12-22T08:28:46.689Z,1.20
2018-12-22T08:29:48.130Z,1.10
2018-12-22T08:30:49.569Z,1.10
2018-12-22T08:31:51.098Z,1.10
2018-12-22T08:32:52.529Z,1.20
2018-12-22T08:33:54.038Z,1.20
2018-12-22T08:34:55.402Z,1.20
2018-12-22T08:35:56.953Z,1.20
2018-12-22T08:36:58.460Z,1.30
2018-12-22T08:37:59.886Z,1.30
2018-12-22T08:39:01.330Z,1.30
2018-12-22T08:40:02.759Z,1.30
2018-12-22T08:41:04.141Z,1.40
2018-12-22T08:42:05.663Z,1.30
2018-12-22T08:43:07.077Z,1.30
2018-12-22T08:45:15.111Z,1.30
2018-12-22T08:46:16.563Z,1.20
2018-12-22T08:47:18.036Z,1.20
2018-12-22T08:48:19.443Z,1.20
2018-12-22T08:49:20.877Z,1.10
2018-12-22T08:50:24.772Z,1.10
2018-12-22T08:51:26.388Z,1.10
2018-12-22T08:52:27.833Z,1.10
2018-12-22T08:53:29.219Z,1.10
2018-12-22T08:54:30.649Z,1.10
2018-12-22T08:55:32.027Z,1.10
2018-12-22T08:56:33.467Z,1.20
2018-12-22T08:57:39.909Z,1.20
2018-12-22T08:58:41.279Z,1.20
2018-12-22T08:59:42.722Z,1.20
2018-12-22T09:00:51.943Z,1.20
2018-12-22T09:01:47.724Z,1.20
2018-12-22T09:02:49.134Z,1.20
2018-12-22T09:03:50.565Z,1.20
2018-12-22T09:04:51.974Z,1.20
2018-12-22T09:05:53.374Z,1.10
2018-12-22T09:06:54.778Z,1.20
2018-12-22T09:07:56.264Z,1.20
2018-12-22T09:08:57.629Z,1.20
2018-12-22T09:09:59.068Z,1.30
2018-12-22T09:11:00.495Z,1.20
2018-12-22T09:12:01.894Z,1.30
2018-12-22T09:13:03.351Z,1.30
2018-12-22T09:14:04.757Z,1.20
2018-12-22T09:15:06.207Z,1.30
2018-12-22T09:16:07.638Z,1.30
2018-12-22T09:17:09.069Z,1.30
2018-12-22T09:18:10.494Z,1.40
2018-12-22T09:19:11.977Z,1.40
2018-12-22T09:20:13.371Z,1.40
2018-12-22T09:21:14.763Z,1.40
2018-12-22T09:22:16.185Z,1.40
2018-12-22T09:23:17.644Z,1.40
2018-12-22T09:24:19.049Z,1.40
2018-12-22T09:25:20.462Z,1.40
2018-12-22T09:26:21.965Z,1.40
2018-12-22T09:27:23.366Z,1.40
2018-12-22T09:28:24.813Z,1.50
2018-12-22T09:29:26.222Z,1.50
2018-12-22T09:30:27.794Z,1.50
2018-12-22T09:31:29.226Z,1.50
2018-12-22T09:32:30.627Z,1.50
2018-12-22T09:33:32.663Z,1.40
2018-12-22T09:34:34.067Z,1.40
2018-12-22T09:35:35.531Z,1.40
2018-12-22T09:36:36.947Z,1.40
2018-12-22T09:37:38.510Z,1.30
2018-12-22T09:38:40.001Z,1.40
2018-12-22T09:39:41.447Z,1.30
2018-12-22T09:40:42.819Z,1.30
2018-12-22T09:41:44.205Z,1.30
2018-12-22T09:42:45.630Z,1.30
2018-12-22T09:43:47.105Z,1.30
2018-12-22T09:44:48.518Z,1.30
2018-12-22T09:45:49.956Z,1.30
2018-12-22T09:46:51.360Z,1.30
2018-12-22T09:47:52.863Z,1.40
2018-12-22T09:48:54.280Z,1.40
2018-12-22T09:49:55.688Z,1.40
2018-12-22T10:03:12.057Z,1.30
2018-12-22T10:04:13.506Z,1.30
2018-12-22T10:05:14.938Z,1.30
2018-12-22T10:06:18.532Z,1.30
2018-12-22T10:07:20.159Z,1.30
2018-12-22T10:08:21.585Z,1.30
2018-12-22T10:09:23.036Z,1.40
2018-12-22T10:10:24.419Z,1.40
2018-12-22T10:11:25.826Z,1.40
2018-12-22T10:12:27.264Z,1.40
2018-12-22T10:13:28.666Z,1.40
2018-12-22T10:14:30.037Z,1.30
2018-12-22T10:15:31.581Z,1.30
2018-12-22T10:16:33.049Z,1.30
2018-12-22T10:17:34.600Z,1.30
2018-12-22T10:18:35.988Z,1.30
2018-12-22T10:19:37.403Z,1.30
2018-12-22T10:20:39.406Z,1.30
2018-12-22T10:21:40.846Z,1.20
2018-12-22T10:22:42.324Z,1.20
2018-12-22T10:23:43.712Z,1.20
2018-12-22T10:24:45.108Z,1.10
2018-12-22T10:25:46.513Z,1.10
2018-12-22T10:26:47.968Z,1.20
2018-12-22T10:27:49.365Z,1.20
2018-12-22T10:28:50.758Z,1.20
2018-12-22T10:29:52.175Z,1.20
2018-12-22T10:30:53.595Z,1.20
2018-12-22T10:31:55.021Z,1.20
2018-12-22T10:32:57.668Z,1.20
2018-12-22T10:33:59.040Z,1.20
2018-12-22T10:35:00.558Z,1.20
2018-12-22T10:36:02.070Z,1.20
2018-12-22T10:37:03.538Z,1.30
2018-12-22T10:38:04.969Z,1.20
2018-12-22T10:39:06.455Z,1.30
2018-12-22T10:40:07.912Z,1.30
2018-12-22T10:41:09.525Z,1.30
2018-12-22T10:42:11.073Z,1.30
2018-12-22T10:43:12.731Z,1.30
2018-12-22T10:44:14.105Z,1.30
2018-12-22T10:45:15.504Z,1.30
2018-12-22T10:46:16.947Z,1.30
2018-12-22T10:47:18.450Z,1.30
2018-12-22T10:48:19.848Z,1.30
2018-12-22T10:49:21.493Z,1.30
2018-12-22T10:50:22.899Z,1.30
2018-12-22T10:51:24.654Z,1.30
2018-12-22T10:52:26.422Z,1.30
2018-12-22T10:53:27.895Z,1.30
2018-12-22T10:54:29.343Z,1.30
2018-12-22T10:55:30.812Z,1.20
2018-12-22T10:56:32.236Z,1.10
2018-12-22T10:57:33.784Z,1.20
2018-12-22T10:58:35.270Z,1.20
2018-12-22T10:59:36.755Z,1.20
2018-12-22T11:00:38.155Z,1.30
2018-12-22T11:01:39.643Z,1.30
2018-12-22T11:02:41.135Z,1.30
2018-12-22T11:03:42.542Z,1.30
2018-12-22T11:04:43.937Z,1.40
2018-12-22T11:05:45.379Z,1.40
2018-12-22T11:06:46.787Z,1.30
2018-12-22T11:07:53.223Z,1.20
2018-12-22T11:08:54.648Z,1.20
2018-12-22T11:09:56.099Z,1.20
2018-12-22T11:10:57.585Z,1.20
2018-12-22T11:11:59.047Z,1.30
2018-12-22T11:13:00.656Z,1.20
2018-12-22T11:14:02.085Z,1.10
2018-12-22T11:15:03.522Z,1.10
2018-12-22T11:16:04.962Z,1.10
2018-12-22T11:17:06.379Z,1.10
2018-12-22T11:18:07.922Z,1.10
2018-12-22T11:19:09.320Z,1.10
2018-12-22T11:20:10.785Z,1.10
2018-12-22T11:21:12.198Z,1.10
2018-12-22T11:22:13.609Z,1.10
2018-12-22T11:23:20.400Z,1.10
2018-12-22T11:24:18.722Z,1.10
2018-12-22T11:25:20.138Z,1.10
2018-12-22T11:26:21.529Z,1.10
2018-12-22T11:27:22.874Z,1.10
2018-12-22T11:28:24.332Z,1.00
2018-12-22T11:29:25.733Z,1.00
2018-12-22T11:30:27.171Z,1.00
2018-12-22T11:31:35.000Z,1.10
2018-12-22T11:32:32.023Z,1.00
2018-12-22T11:33:33.512Z,1.00
2018-12-22T11:34:34.937Z,1.00
2018-12-22T11:35:36.343Z,1.00
2018-12-22T11:36:37.774Z,1.00
2018-12-22T11:37:40.456Z,1.00
2018-12-22T11:38:42.052Z,1.00
2018-12-22T11:39:43.465Z,1.00
2018-12-22T11:40:44.899Z,1.00
2018-12-22T11:41:46.318Z,1.10
2018-12-22T11:42:48.022Z,1.00
2018-12-22T11:43:49.620Z,1.00
2018-12-22T11:44:51.058Z,1.10
2018-12-22T11:45:52.454Z,1.20
2018-12-22T11:46:53.848Z,1.10
2018-12-22T11:47:55.257Z,1.00
2018-12-22T11:48:56.695Z,1.00
2018-12-22T11:49:58.117Z,1.00
2018-12-22T11:50:59.493Z,0.90
2018-12-22T11:52:00.866Z,0.90
2018-12-22T11:53:02.253Z,0.90
2018-12-22T11:54:03.725Z,0.90
2018-12-22T11:55:05.193Z,0.80
2018-12-22T11:56:06.644Z,0.90
2018-12-22T11:57:09.292Z,0.90
2018-12-22T11:58:10.763Z,0.90
2018-12-22T11:59:13.034Z,0.80
2018-12-22T12:00:14.428Z,0.80
2018-12-22T12:01:15.820Z,0.80
2018-12-22T12:02:17.223Z,0.80
2018-12-22T12:03:18.602Z,0.80
2018-12-22T12:04:20.283Z,0.70
2018-12-22T12:07:54.825Z,0.80
2018-12-22T12:08:56.279Z,0.80
2018-12-22T12:09:57.678Z,0.80
2018-12-22T12:11:00.507Z,0.80
2018-12-22T12:12:02.106Z,0.90
2018-12-22T12:13:03.543Z,0.80
2018-12-22T12:14:04.926Z,0.80
2018-12-22T12:15:06.370Z,0.80
2018-12-22T12:16:07.779Z,0.80
2018-12-22T12:17:09.138Z,0.80
2018-12-22T12:18:11.324Z,0.80
2018-12-22T12:19:12.683Z,0.80
2018-12-22T12:20:14.420Z,0.80
2018-12-22T12:21:15.801Z,0.80
2018-12-22T12:22:17.188Z,0.80
2018-12-22T12:23:18.547Z,0.70
2018-12-22T12:24:19.891Z,0.70
2018-12-22T12:25:21.296Z,0.70
2018-12-22T12:26:22.831Z,0.70
2018-12-22T12:27:24.240Z,0.70
2018-12-22T12:28:25.644Z,0.70
2018-12-22T12:29:27.046Z,0.70
2018-12-22T12:30:28.471Z,0.70
2018-12-22T12:31:29.879Z,0.80
2018-12-22T12:32:31.277Z,0.70
2018-12-22T12:33:32.679Z,0.70
2018-12-22T12:34:34.053Z,0.80
2018-12-22T12:35:35.510Z,0.80
2018-12-22T12:36:36.913Z,0.80
2018-12-22T12:37:38.340Z,0.80
2018-12-22T12:38:39.718Z,0.70
2018-12-22T12:39:41.109Z,0.80
2018-12-22T12:40:42.554Z,0.80
2018-12-22T12:41:43.937Z,0.80
2018-12-22T12:42:45.346Z,0.80
2018-12-22T12:43:46.798Z,0.80
2018-12-22T12:44:48.181Z,0.80
2018-12-22T12:45:49.581Z,0.80
2018-12-22T12:46:50.981Z,0.80
2018-12-22T12:47:52.373Z,0.80
2018-12-22T12:48:53.919Z,0.80
2018-12-22T12:49:55.310Z,0.80
2018-12-22T12:50:56.685Z,0.80
2018-12-22T12:51:58.123Z,0.80
2018-12-22T12:52:59.529Z,0.80
2018-12-22T12:54:00.926Z,0.80
2018-12-22T12:55:02.404Z,0.80
2018-12-22T12:56:03.773Z,0.80
2018-12-22T12:57:05.280Z,0.80
2018-12-22T12:58:06.725Z,0.80
2018-12-22T12:59:08.113Z,0.80
2018-12-22T13:00:09.550Z,0.70
2018-12-22T13:01:10.932Z,0.80
2018-12-22T13:02:12.311Z,0.80
2018-12-22T13:03:13.781Z,0.90
2018-12-22T13:04:15.153Z,0.80
2018-12-22T13:05:16.568Z,0.80
2018-12-22T13:06:17.938Z,0.80
2018-12-22T13:07:19.359Z,0.80
2018-12-22T13:08:20.734Z,0.80
2018-12-22T13:09:22.142Z,0.80
2018-12-22T13:10:23.561Z,0.80
2018-12-22T13:11:24.940Z,0.80
2018-12-22T13:12:26.293Z,0.80
2018-12-22T13:13:27.650Z,0.80
2018-12-22T13:14:29.005Z,0.80
2018-12-22T13:15:30.407Z,0.80
2018-12-22T13:16:31.774Z,0.70
2018-12-22T13:17:33.118Z,0.70
2018-12-22T13:19:41.214Z,0.70
2018-12-22T13:20:42.604Z,0.70
2018-12-22T13:21:43.967Z,0.70
2018-12-22T13:22:45.312Z,0.70
2018-12-22T13:23:46.698Z,0.70
2018-12-22T13:24:48.057Z,0.60
2018-12-22T13:25:49.430Z,0.70
2018-12-22T13:26:50.806Z,0.70
2018-12-22T13:27:52.158Z,0.70
2018-12-22T13:28:53.559Z,0.70
2018-12-22T13:29:55.195Z,0.70
2018-12-22T13:30:57.078Z,0.70
2018-12-22T13:31:58.501Z,0.70
2018-12-22T13:33:00.187Z,0.70
2018-12-22T13:34:01.588Z,0.70
2018-12-22T13:35:02.968Z,0.70
2018-12-22T13:36:04.358Z,0.70
2018-12-22T13:37:05.771Z,0.70
2018-12-22T13:38:07.184Z,0.70
2018-12-22T13:39:08.570Z,0.70
2018-12-22T13:40:09.982Z,0.70
2018-12-22T13:41:11.506Z,0.70
2018-12-22T13:42:12.913Z,0.60
2018-12-22T13:43:14.416Z,0.60
2018-12-22T13:44:15.869Z,0.60
2018-12-22T13:45:17.349Z,0.70
2018-12-22T13:46:18.761Z,0.70
2018-12-22T13:47:20.202Z,0.70
2018-12-22T13:48:21.947Z,0.70
2018-12-22T13:49:23.605Z,0.70
2018-12-22T13:50:25.210Z,0.70
2018-12-22T13:51:26.685Z,0.70
2018-12-22T13:52:28.045Z,0.70
2018-12-22T13:53:29.414Z,0.70
2018-12-22T13:54:30.814Z,0.70
2018-12-22T13:55:32.217Z,0.70
2018-12-22T13:56:33.604Z,0.70